Terminal Aerodrome Forecast
Issued by NWS Detroit/Pontiac, MI

Home | Current Version | Previous Version | Text Only | Print | Product List | Glossary On
Versions: 1 2 3 4 5 6 7 8 9 10 11 12 13 14 15 16 17 18
000
FTUS43 KDTX 250413 AAA
TAFFNT
TAF AMD
KFNT 250413Z 2504/2524 26015G25KT 4SM -SN OVC006
      TEMPO 2504/2506 2SM -SN BR OVC004
     FM250700 25014G24KT 6SM -SHSN BR FEW008 OVC015
     FM251000 25013G23KT P6SM OVC015
     FM251500 23015G25KT P6SM BKN025=

USA.gov is the U.S. government's official web portal to all federal, state and local government web resources and services.